Time;durP1;ratioP1;P1;durP2;ratioP2;P2;SDS_P1;SDS_P2;PMS_P1;PMS_P2;Temp;Humidity;BMP_temperature;BMP_pressure;BME280_temperature;BME280_humidity;BME280_pressure;Samples;Min_cycle;Max_cycle;Signal;HPM_P1;HPM_P2
2021/09/29 00:00:06;;;;;;;10.63;1.77;;;21.80;56.30;;;;;;6241210;28;20049;-82
2021/09/29 00:03:28;;;;;;;3.60;1.60;;;21.80;56.30;;;;;;6176180;28;20096;-83
2021/09/29 00:06:29;;;;;;;4.22;1.83;;;21.80;56.40;;;;;;6199749;28;20034;-83
2021/09/29 00:09:30;;;;;;;3.72;1.55;;;21.80;56.40;;;;;;6182369;28;20045;-82
2021/09/29 00:13:11;;;;;;;6.32;1.40;;;21.70;56.50;;;;;;6167151;28;20570;-83
2021/09/29 00:16:12;;;;;;;6.75;1.77;;;21.50;57.40;;;;;;6102382;29;20096;-83
2021/09/29 00:19:13;;;;;;;9.32;2.42;;;21.70;56.70;;;;;;6078589;29;20124;-82
2021/09/29 00:22:16;;;;;;;3.78;1.70;;;21.70;56.80;;;;;;6078616;29;20056;-82
2021/09/29 00:25:18;;;;;;;2.38;1.27;;;21.70;57.00;;;;;;6069693;29;20359;-82
2021/09/29 00:28:18;;;;;;;4.95;2.00;;;21.60;57.00;;;;;;6079630;29;20040;-82
2021/09/29 00:34:33;;;;;;;3.47;2.08;;;21.60;57.20;;;;;;6117430;29;20473;-82
2021/09/29 00:37:34;;;;;;;5.15;1.50;;;21.60;57.30;;;;;;6094442;29;20051;-82
2021/09/29 00:40:35;;;;;;;2.47;1.50;;;21.50;57.40;;;;;;6126171;29;20101;-82
2021/09/29 00:43:36;;;;;;;10.80;2.55;;;21.50;58.10;;;;;;6095031;29;20472;-82
2021/09/29 00:46:39;;;;;;;4.57;1.95;;;21.50;57.60;;;;;;6126183;29;20091;-82
2021/09/29 00:50:12;;;;;;;2.72;1.38;;;21.50;57.70;;;;;;6108902;29;20361;-82
2021/09/29 00:53:13;;;;;;;1.98;1.45;;;21.50;58.00;;;;;;6165140;28;20033;-80
2021/09/29 00:56:16;;;;;;;5.03;1.98;;;21.50;57.90;;;;;;6224400;28;20346;-80
2021/09/29 00:59:17;;;;;;;2.25;1.50;;;21.50;58.00;;;;;;6218801;28;20030;-81
2021/09/29 01:02:20;;;;;;;4.18;1.50;;;21.50;58.10;;;;;;6219456;28;20064;-81
2021/09/29 01:05:21;;;;;;;12.25;1.70;;;21.40;58.20;;;;;;6209350;28;20029;-81
2021/09/29 01:08:29;;;;;;;4.35;1.95;;;21.40;58.30;;;;;;6216199;28;20399;-81
2021/09/29 01:12:08;;;;;;;5.95;1.90;;;21.40;58.50;;;;;;6209577;28;20403;-81
2021/09/29 01:15:51;;;;;;;5.18;1.77;;;21.40;58.70;;;;;;6201285;28;20038;-82
2021/09/29 01:18:56;;;;;;;;;;;21.30;58.90;;;;;;6188031;28;20034;-81
2021/09/29 01:22:50;;;;;;;2.30;1.52;;;21.30;59.00;;;;;;6220361;28;19960;-82
2021/09/29 01:26:07;;;;;;;4.88;1.55;;;21.30;59.10;;;;;;6217806;28;20133;-82
2021/09/29 01:29:16;;;;;;;7.75;1.60;;;21.20;59.20;;;;;;6220946;28;20034;-82
2021/09/29 01:32:19;;;;;;;10.35;2.55;;;21.20;59.40;;;;;;6220311;28;20052;-82
2021/09/29 01:35:21;;;;;;;8.02;1.83;;;21.20;59.50;;;;;;6203041;28;20041;-82
2021/09/29 01:38:23;;;;;;;3.85;1.75;;;21.10;59.60;;;;;;6201954;28;20153;-82
2021/09/29 01:41:27;;;;;;;4.35;1.52;;;21.10;59.70;;;;;;6218727;28;20130;-81
2021/09/29 01:44:31;;;;;;;5.22;1.58;;;21.20;59.80;;;;;;6215613;28;20033;-82
2021/09/29 01:47:57;;;;;;;3.10;1.75;;;21.10;59.90;;;;;;6191358;28;20081;-82
2021/09/29 01:50:59;;;;;;;2.33;1.75;;;21.10;60.10;;;;;;6195788;28;20173;-82
2021/09/29 01:54:01;;;;;;;2.88;1.83;;;21.10;60.40;;;;;;6222746;28;20066;-83
2021/09/29 01:57:02;;;;;;;3.72;2.05;;;21.10;60.50;;;;;;6216572;28;20040;-81
2021/09/29 02:00:07;;;;;;;7.78;2.10;;;21.00;60.60;;;;;;6179873;28;20110;-82
2021/09/29 02:03:18;;;;;;;5.00;1.80;;;21.00;60.90;;;;;;6197140;28;20173;-81
2021/09/29 02:06:20;;;;;;;6.57;1.92;;;21.00;61.10;;;;;;6195225;28;20034;-81
2021/09/29 02:09:47;;;;;;;3.65;1.70;;;21.00;61.10;;;;;;6208727;28;20111;-82
2021/09/29 02:12:49;;;;;;;4.13;1.40;;;21.00;60.90;;;;;;6220697;28;20037;-81
2021/09/29 02:15:50;;;;;;;3.65;1.70;;;21.00;60.90;;;;;;6220844;28;20044;-82
2021/09/29 02:18:52;;;;;;;3.28;1.77;;;21.00;60.90;;;;;;6216747;28;20041;-81
2021/09/29 02:21:54;;;;;;;1.88;1.50;;;21.00;60.90;;;;;;6231310;28;20030;-82
2021/09/29 02:24:59;;;;;;;5.00;1.67;;;20.90;61.00;;;;;;6204680;28;20045;-82
2021/09/29 02:27:59;;;;;;;3.47;1.90;;;20.90;61.10;;;;;;6220908;28;20100;-81
2021/09/29 02:31:01;;;;;;;4.10;1.85;;;20.80;61.20;;;;;;6214239;28;20049;-81
2021/09/29 02:34:02;;;;;;;7.68;1.63;;;20.80;61.20;;;;;;6220772;28;20041;-81
2021/09/29 02:37:04;;;;;;;3.30;1.70;;;20.80;61.30;;;;;;6217498;28;20180;-81
2021/09/29 02:40:07;;;;;;;7.53;1.80;;;20.80;61.20;;;;;;6220171;28;20034;-81
2021/09/29 02:43:07;;;;;;;4.30;2.05;;;20.80;61.20;;;;;;6198891;28;20038;-80
2021/09/29 02:46:08;;;;;;;4.88;2.25;;;20.80;61.20;;;;;;6178870;28;20120;-81
2021/09/29 02:49:10;;;;;;;8.23;2.40;;;20.80;61.20;;;;;;6177441;28;20480;-81
2021/09/29 02:52:12;;;;;;;3.33;2.03;;;20.80;61.40;;;;;;6196305;28;20060;-81
2021/09/29 02:55:13;;;;;;;6.90;2.50;;;20.70;61.40;;;;;;6222570;28;20045;-80
2021/09/29 02:58:15;;;;;;;4.40;2.42;;;20.70;61.80;;;;;;6206686;28;20065;-81
2021/09/29 03:01:16;;;;;;;5.47;2.28;;;20.60;61.60;;;;;;6222695;28;20057;-81
2021/09/29 03:04:17;;;;;;;6.00;2.65;;;20.60;62.00;;;;;;6215869;28;20030;-81
2021/09/29 03:07:17;;;;;;;14.70;2.80;;;20.60;62.40;;;;;;6220036;28;20502;-81
2021/09/29 03:10:18;;;;;;;4.70;2.47;;;20.50;62.70;;;;;;6228711;28;20038;-81
2021/09/29 03:13:19;;;;;;;10.00;2.45;;;20.50;62.90;;;;;;6219863;28;20034;-81
2021/09/29 03:16:21;;;;;;;9.43;2.30;;;20.40;63.20;;;;;;6224075;28;20045;-80
2021/09/29 03:19:22;;;;;;;5.68;2.17;;;20.40;63.40;;;;;;6224481;28;20030;-81
2021/09/29 03:22:23;;;;;;;9.48;2.97;;;20.30;63.50;;;;;;6221240;28;20136;-82
2021/09/29 03:25:25;;;;;;;4.68;2.50;;;20.30;63.70;;;;;;6223167;28;20046;-81
2021/09/29 03:28:27;;;;;;;5.18;2.47;;;20.30;63.70;;;;;;6224950;28;20042;-82
2021/09/29 03:31:28;;;;;;;7.10;3.72;;;20.30;63.70;;;;;;6218695;28;20100;-82
2021/09/29 03:34:29;;;;;;;4.97;2.30;;;20.30;63.90;;;;;;6217821;28;20046;-81
2021/09/29 03:37:30;;;;;;;3.13;2.25;;;20.30;63.70;;;;;;6212577;28;20113;-81
2021/09/29 03:40:31;;;;;;;6.75;2.95;;;20.20;63.60;;;;;;6216623;28;20038;-81
2021/09/29 03:43:32;;;;;;;8.07;2.60;;;20.20;63.70;;;;;;6200232;28;20459;-81
2021/09/29 03:46:33;;;;;;;5.57;2.22;;;20.20;63.90;;;;;;6205486;28;20045;-81
2021/09/29 03:49:34;;;;;;;5.38;2.38;;;20.20;63.90;;;;;;6195030;28;20044;-81
2021/09/29 03:52:34;;;;;;;14.02;2.25;;;20.20;63.90;;;;;;6182402;28;20435;-82
2021/09/29 03:55:35;;;;;;;5.25;2.03;;;20.20;63.80;;;;;;6199337;28;20117;-81
2021/09/29 03:58:36;;;;;;;3.92;1.80;;;20.20;63.60;;;;;;6214407;28;20112;-82
2021/09/29 04:02:02;;;;;;;4.97;2.15;;;20.20;63.50;;;;;;6224604;28;20037;-82
2021/09/29 04:05:05;;;;;;;2.83;2.10;;;20.10;63.30;;;;;;6226470;28;20497;-82
2021/09/29 04:08:07;;;;;;;5.15;2.30;;;20.10;63.30;;;;;;6200312;28;20042;-81
2021/09/29 04:11:10;;;;;;;5.75;2.03;;;20.00;63.30;;;;;;6207198;28;20546;-82
2021/09/29 04:14:11;;;;;;;7.53;1.88;;;20.00;63.30;;;;;;6224969;28;20088;-81
2021/09/29 04:17:12;;;;;;;4.43;2.05;;;20.00;63.30;;;;;;6225085;28;20042;-82
2021/09/29 04:20:13;;;;;;;5.90;2.88;;;20.00;63.60;;;;;;6181770;28;20060;-80
2021/09/29 04:23:14;;;;;;;6.63;2.15;;;20.00;63.40;;;;;;6223203;28;20084;-80
2021/09/29 04:26:16;;;;;;;6.43;2.00;;;20.00;63.40;;;;;;6224030;28;20120;-82
2021/09/29 04:29:42;;;;;;;9.38;1.70;;;20.00;63.30;;;;;;6224186;28;20049;-81
2021/09/29 04:32:44;;;;;;;5.32;2.47;;;20.00;63.20;;;;;;6223504;28;20417;-82
2021/09/29 04:35:45;;;;;;;9.80;2.28;;;20.00;63.40;;;;;;6225500;28;20109;-81
2021/09/29 04:38:46;;;;;;;3.20;1.98;;;20.00;63.60;;;;;;6216980;28;20455;-82
2021/09/29 04:41:48;;;;;;;3.97;2.00;;;20.00;63.70;;;;;;6222912;28;20063;-81
2021/09/29 04:45:14;;;;;;;4.70;2.03;;;20.00;63.70;;;;;;6224371;28;20407;-82
2021/09/29 04:48:15;;;;;;;3.38;2.97;;;19.90;63.80;;;;;;6207934;28;20036;-82
2021/09/29 04:51:16;;;;;;;4.97;2.33;;;19.90;64.00;;;;;;6217332;28;20034;-81
2021/09/29 04:54:17;;;;;;;6.30;1.90;;;19.90;64.10;;;;;;6202860;28;20099;-81
2021/09/29 04:57:19;;;;;;;3.63;1.58;;;19.90;64.20;;;;;;6201869;28;20410;-85
2021/09/29 05:00:20;;;;;;;5.68;2.13;;;19.90;64.20;;;;;;6206743;28;20045;-85
2021/09/29 05:03:23;;;;;;;6.50;2.08;;;19.90;64.20;;;;;;6207680;28;20069;-84
2021/09/29 05:06:28;;;;;;;10.95;2.35;;;19.80;64.20;;;;;;6199110;28;20459;-83
2021/09/29 05:09:29;;;;;;;4.18;1.70;;;19.80;64.20;;;;;;6224344;28;20046;-83
2021/09/29 05:12:32;;;;;;;8.50;2.38;;;19.70;64.30;;;;;;6188201;28;20061;-83
2021/09/29 05:15:33;;;;;;;5.03;2.58;;;19.70;64.40;;;;;;6216129;28;20352;-82
2021/09/29 05:18:34;;;;;;;5.68;2.45;;;19.60;64.40;;;;;;6223660;28;20033;-80
2021/09/29 05:21:35;;;;;;;6.43;2.30;;;19.60;64.40;;;;;;6206732;28;20046;-81
2021/09/29 05:24:36;;;;;;;7.05;2.25;;;19.60;65.30;;;;;;6232511;28;20045;-80
2021/09/29 05:27:37;;;;;;;3.42;1.88;;;19.60;64.50;;;;;;6224825;28;20035;-81
2021/09/29 05:30:38;;;;;;;7.70;2.88;;;19.60;64.60;;;;;;6224491;28;20117;-82
2021/09/29 05:33:40;;;;;;;6.25;2.17;;;19.60;64.60;;;;;;6222201;28;20061;-82
2021/09/29 05:36:41;;;;;;;13.15;2.55;;;19.60;64.60;;;;;;6202243;28;20054;-82
2021/09/29 05:39:42;;;;;;;8.45;2.47;;;19.70;64.60;;;;;;6223170;28;20038;-82
2021/09/29 05:42:43;;;;;;;5.22;2.38;;;19.70;64.40;;;;;;6197351;28;20088;-82
2021/09/29 05:45:43;;;;;;;2.70;2.03;;;19.80;64.40;;;;;;6197872;28;20054;-81
2021/09/29 05:48:44;;;;;;;7.18;2.20;;;19.80;64.30;;;;;;6198537;28;20464;-81
2021/09/29 05:51:47;;;;;;;5.70;1.90;;;19.70;64.20;;;;;;6178077;28;20039;-81
2021/09/29 05:54:48;;;;;;;2.90;2.08;;;19.70;64.20;;;;;;6197869;28;20132;-81
2021/09/29 05:57:48;;;;;;;4.93;1.70;;;19.60;64.10;;;;;;6207879;28;20046;-80
2021/09/29 06:00:49;;;;;;;5.07;1.90;;;19.60;64.10;;;;;;6193424;28;20060;-81
2021/09/29 06:03:50;;;;;;;5.75;2.30;;;19.60;64.00;;;;;;6220208;28;20097;-79
2021/09/29 06:06:51;;;;;;;13.57;2.20;;;19.60;64.00;;;;;;6220010;28;20050;-80
2021/09/29 06:09:53;;;;;;;7.65;2.75;;;19.50;64.00;;;;;;6211747;28;20181;-80
2021/09/29 06:12:55;;;;;;;10.45;2.92;;;19.50;64.00;;;;;;6204477;28;20029;-79
2021/09/29 06:15:56;;;;;;;4.00;1.85;;;19.50;64.00;;;;;;6198605;28;20031;-82
2021/09/29 06:18:57;;;;;;;6.90;1.88;;;19.50;64.00;;;;;;6221824;28;20061;-81
2021/09/29 06:21:58;;;;;;;4.53;2.05;;;19.50;63.90;;;;;;6220747;28;20466;-81
2021/09/29 06:24:59;;;;;;;6.38;2.35;;;19.40;63.80;;;;;;6220903;28;20041;-80
2021/09/29 06:28:00;;;;;;;7.70;2.30;;;19.50;63.90;;;;;;6221081;28;20033;-80
2021/09/29 06:31:01;;;;;;;12.43;2.50;;;19.50;63.90;;;;;;6221302;28;20061;-80
2021/09/29 06:34:03;;;;;;;4.72;2.30;;;19.50;63.90;;;;;;6207770;28;20050;-81
2021/09/29 06:37:05;;;;;;;7.57;2.58;;;19.40;63.80;;;;;;6180996;28;20038;-81
2021/09/29 06:40:07;;;;;;;9.40;2.47;;;19.40;63.80;;;;;;6198560;28;20042;-80
2021/09/29 06:43:08;;;;;;;7.25;2.60;;;19.50;63.80;;;;;;6179352;28;20046;-80
2021/09/29 06:46:45;;;;;;;8.95;2.95;;;19.40;63.90;;;;;;6188046;28;20108;-80
2021/09/29 06:49:46;;;;;;;5.75;2.38;;;19.30;63.80;;;;;;6215278;28;20113;-81
2021/09/29 06:52:47;;;;;;;4.75;2.38;;;19.40;63.80;;;;;;6183812;28;20038;-81
2021/09/29 06:55:49;;;;;;;5.57;2.00;;;19.40;63.90;;;;;;6201445;28;20062;-79
2021/09/29 06:58:52;;;;;;;6.40;2.65;;;19.40;63.80;;;;;;6199446;28;20467;-81
2021/09/29 07:01:53;;;;;;;8.38;2.58;;;19.40;63.90;;;;;;6225806;28;20034;-80
2021/09/29 07:04:54;;;;;;;4.68;2.33;;;19.40;63.90;;;;;;6199709;28;20042;-81
2021/09/29 07:07:59;;;;;;;7.13;2.25;;;19.40;63.80;;;;;;6182069;28;20034;-80
2021/09/29 07:11:00;;;;;;;11.30;4.10;;;19.40;63.70;;;;;;6198693;28;20041;-81
2021/09/29 07:14:02;;;;;;;13.57;2.78;;;19.50;63.80;;;;;;6199210;28;20682;-80
2021/09/29 07:17:03;;;;;;;7.63;2.33;;;19.40;63.60;;;;;;6214444;28;20381;-81
2021/09/29 07:20:09;;;;;;;7.75;2.13;;;19.60;63.70;;;;;;6206240;28;20045;-80
2021/09/29 07:23:12;;;;;;;9.35;2.40;;;19.50;63.50;;;;;;6205846;28;20188;-80
2021/09/29 07:26:13;;;;;;;8.45;2.55;;;19.50;63.50;;;;;;6221973;28;20443;-81
2021/09/29 07:29:14;;;;;;;5.28;2.50;;;19.50;63.30;;;;;;6221777;28;20046;-81
2021/09/29 07:32:15;;;;;;;8.57;2.20;;;19.50;64.10;;;;;;6203578;28;20042;-81
2021/09/29 07:35:16;;;;;;;13.98;2.35;;;19.60;63.30;;;;;;6189586;28;20131;-80
2021/09/29 07:38:17;;;;;;;4.53;2.20;;;19.60;63.10;;;;;;6222715;28;20034;-81
2021/09/29 07:41:18;;;;;;;6.43;2.65;;;19.70;62.90;;;;;;6222405;28;20084;-81
2021/09/29 07:44:19;;;;;;;11.73;2.72;;;19.80;62.70;;;;;;6222592;28;20070;-81
2021/09/29 07:47:20;;;;;;;6.07;2.90;;;19.90;62.60;;;;;;6206247;28;20046;-80
2021/09/29 07:50:24;;;;;;;13.50;2.90;;;20.00;62.30;;;;;;6222524;28;20538;-81
2021/09/29 07:53:25;;;;;;;5.80;2.90;;;20.20;62.30;;;;;;6222885;28;20041;-80
2021/09/29 07:56:26;;;;;;;7.72;3.83;;;20.30;62.80;;;;;;6203939;28;20176;-80
2021/09/29 07:59:27;;;;;;;7.38;3.08;;;20.40;61.60;;;;;;6222145;28;20042;-82
2021/09/29 08:02:28;;;;;;;3.53;2.08;;;20.60;61.30;;;;;;6214285;28;20193;-81
2021/09/29 08:05:31;;;;;;;6.18;2.55;;;20.70;60.90;;;;;;6237545;28;20057;-81
2021/09/29 08:08:31;;;;;;;5.68;2.47;;;20.90;60.40;;;;;;6205425;28;20100;-81
2021/09/29 08:11:32;;;;;;;10.32;2.55;;;21.00;59.90;;;;;;6205657;28;20096;-81
2021/09/29 08:14:39;;;;;;;4.63;2.38;;;21.10;59.70;;;;;;6221983;28;20466;-81
2021/09/29 08:17:42;;;;;;;8.13;2.05;;;21.10;59.30;;;;;;6210580;28;20037;-80
2021/09/29 08:20:43;;;;;;;9.30;1.80;;;21.10;59.10;;;;;;6226294;28;20045;-80
2021/09/29 08:23:48;;;;;;;6.88;2.15;;;21.30;58.90;;;;;;6226120;28;20053;-80
2021/09/29 08:30:14;;;;;;;5.53;2.22;;;21.40;58.10;;;;;;6226612;28;20462;-80
2021/09/29 08:36:24;;;;;;;7.78;2.25;;;21.70;57.40;;;;;;6225755;28;20046;-80
2021/09/29 08:43:00;;;;;;;6.80;2.33;;;21.80;56.80;;;;;;6226801;28;20408;-80
2021/09/29 08:46:05;;;;;;;6.70;2.55;;;21.90;56.60;;;;;;6220272;28;20065;-80
2021/09/29 08:49:20;;;;;;;9.30;2.70;;;22.10;56.80;;;;;;6216991;28;20052;-80
2021/09/29 08:55:45;;;;;;;5.70;2.92;;;22.30;55.90;;;;;;6197524;28;20072;-79
2021/09/29 09:15:44;;;;;;;5.60;1.63;;;22.60;54.00;;;;;;6204946;28;20038;-79
2021/09/29 09:18:50;;;;;;;4.90;2.40;;;22.60;53.80;;;;;;6217085;28;20088;-79
2021/09/29 09:21:55;;;;;;;6.05;2.20;;;22.80;53.90;;;;;;6214832;28;20363;-79
2021/09/29 09:24:56;;;;;;;7.20;2.28;;;22.80;53.80;;;;;;6200789;28;20073;-80
2021/09/29 09:27:57;;;;;;;10.68;2.78;;;22.80;53.80;;;;;;6196914;28;20468;-80
2021/09/29 09:31:08;;;;;;;4.32;2.10;;;22.90;53.80;;;;;;6207356;28;20331;-80
2021/09/29 09:34:09;;;;;;;1.70;1.05;;;23.00;53.60;;;;;;6201653;28;20473;-80
2021/09/29 09:37:15;;;;;;;1.33;0.90;;;23.10;52.80;;;;;;6221818;28;20136;-80
2021/09/29 09:40:16;;;;;;;3.15;1.35;;;23.20;52.20;;;;;;6221756;28;20038;-80
2021/09/29 09:43:19;;;;;;;3.55;1.77;;;23.30;51.80;;;;;;6215094;28;20069;-79
2021/09/29 09:46:22;;;;;;;5.25;1.95;;;23.30;51.60;;;;;;6213598;28;20030;-80
2021/09/29 09:49:24;;;;;;;4.10;1.40;;;23.40;51.60;;;;;;6235612;28;20029;-80
2021/09/29 09:52:34;;;;;;;4.32;1.00;;;23.50;51.30;;;;;;6212085;28;20042;-80
2021/09/29 09:55:36;;;;;;;7.97;1.48;;;23.50;50.70;;;;;;6199225;28;20038;-80
2021/09/29 09:58:49;;;;;;;3.00;1.83;;;23.60;50.20;;;;;;6205851;28;20076;-80
2021/09/29 10:01:49;;;;;;;1.67;1.08;;;23.70;50.00;;;;;;6219409;28;20072;-81
2021/09/29 10:04:50;;;;;;;1.65;0.82;;;23.70;49.70;;;;;;6203782;28;20046;-81
2021/09/29 10:07:52;;;;;;;5.22;1.10;;;24.50;49.40;;;;;;6187550;28;20034;-81
2021/09/29 10:11:14;;;;;;;3.55;0.90;;;23.80;48.20;;;;;;6196207;28;20100;-80
2021/09/29 10:14:36;;;;;;;4.55;1.20;;;23.90;47.90;;;;;;6173872;28;20042;-80
2021/09/29 10:27:41;;;;;;;2.05;1.08;;;24.80;45.40;;;;;;6220131;28;20049;-82
2021/09/29 10:34:24;;;;;;;3.65;1.10;;;25.40;43.80;;;;;;6185842;28;20046;-83
2021/09/29 10:41:11;;;;;;;2.80;0.93;;;25.70;42.10;;;;;;6176059;28;20121;-81
2021/09/29 10:44:25;;;;;;;3.70;0.85;;;25.80;41.80;;;;;;6197454;28;20050;-83
2021/09/29 10:47:40;;;;;;;0.93;0.55;;;25.90;41.30;;;;;;6200992;28;20110;-81
2021/09/29 11:07:45;;;;;;;2.40;0.70;;;26.70;37.30;;;;;;6174997;28;20038;-82
2021/09/29 11:27:47;;;;;;;1.17;0.55;;;27.80;35.20;;;;;;6164377;28;20609;-82
2021/09/29 11:31:07;;;;;;;1.33;0.50;;;27.90;34.70;;;;;;6192081;28;20036;-82
2021/09/29 11:34:18;;;;;;;2.67;0.60;;;28.10;34.60;;;;;;6210227;28;20041;-82
2021/09/29 11:38:02;;;;;;;4.95;0.75;;;29.00;34.90;;;;;;6201011;28;20034;-82
2021/09/29 12:08:18;;;;;;;1.05;0.73;;;31.00;29.90;;;;;;6221350;28;20034;-81
2021/09/29 12:12:15;;;;;;;1.50;0.50;;;31.60;29.10;;;;;;6201703;28;20034;-81
2021/09/29 12:14:45;;;;;;;3.53;0.80;;;32.20;28.60;;;;;;6181059;28;20122;-82
2021/09/29 12:17:51;;;;;;;10.20;1.35;;;32.60;28.10;;;;;;6180410;28;20033;-82
2021/09/29 12:20:55;;;;;;;6.25;0.68;;;32.90;27.80;;;;;;6220553;28;20038;-81
2021/09/29 12:23:58;;;;;;;5.38;0.70;;;32.90;27.30;;;;;;6210405;28;20094;-81
2021/09/29 12:27:02;;;;;;;7.22;1.58;;;33.00;27.00;;;;;;6193398;28;20119;-81
2021/09/29 12:37:07;;;;;;;3.95;0.80;;;33.80;26.00;;;;;;6199699;28;20033;-81
2021/09/29 12:40:11;;;;;;;2.45;0.90;;;34.20;26.10;;;;;;6185906;28;20429;-81
2021/09/29 12:43:14;;;;;;;2.17;0.70;;;34.60;25.40;;;;;;6198928;28;20073;-82
2021/09/29 12:46:17;;;;;;;2.40;0.68;;;34.90;24.90;;;;;;6189275;28;20413;-82
2021/09/29 12:49:20;;;;;;;10.85;0.93;;;35.00;24.80;;;;;;6198082;28;20476;-81
2021/09/29 12:52:34;;;;;;;4.03;0.60;;;34.50;24.90;;;;;;6167501;28;20133;-82
2021/09/29 12:55:38;;;;;;;2.10;0.38;;;33.30;25.70;;;;;;6190848;28;20084;-81
2021/09/29 12:58:38;;;;;;;1.23;0.50;;;32.20;26.50;;;;;;6215924;28;20034;-82
2021/09/29 13:01:39;;;;;;;3.47;0.70;;;31.30;27.40;;;;;;6173451;28;20030;-82
2021/09/29 13:04:40;;;;;;;1.45;0.70;;;30.60;27.90;;;;;;6185640;28;20046;-82
2021/09/29 13:07:44;;;;;;;4.22;0.70;;;30.00;28.50;;;;;;6194131;28;20088;-83
2021/09/29 13:10:45;;;;;;;3.83;0.88;;;29.50;29.10;;;;;;6181225;28;20344;-82
2021/09/29 13:13:46;;;;;;;1.83;0.50;;;29.10;29.70;;;;;;6189215;28;20067;-81
2021/09/29 13:16:48;;;;;;;2.95;0.60;;;28.60;30.20;;;;;;6199069;28;20050;-82
2021/09/29 13:19:57;;;;;;;2.50;0.82;;;28.20;31.00;;;;;;6191646;28;20212;-82
2021/09/29 13:23:05;;;;;;;4.20;0.60;;;28.00;31.50;;;;;;6180610;28;20050;-83
2021/09/29 13:39:19;;;;;;;2.53;0.77;;;27.10;32.60;;;;;;6218199;28;20049;-80
2021/09/29 13:42:20;;;;;;;1.95;0.75;;;26.90;32.50;;;;;;6225757;28;20038;-81
2021/09/29 13:45:21;;;;;;;3.03;0.45;;;26.90;32.40;;;;;;6222062;28;20064;-81
2021/09/29 13:48:22;;;;;;;6.60;0.73;;;26.90;32.40;;;;;;6219154;28;20075;-81
2021/09/29 13:51:27;;;;;;;2.00;0.70;;;27.00;32.40;;;;;;6198577;28;20034;-81
2021/09/29 13:54:28;;;;;;;1.13;0.65;;;27.00;32.10;;;;;;6195004;28;20340;-83
2021/09/29 13:57:43;;;;;;;1.77;0.70;;;27.00;32.00;;;;;;6215443;28;20069;-82
2021/09/29 14:14:50;;;;;;;1.08;0.73;;;26.60;33.20;;;;;;6190267;28;20045;-81
2021/09/29 14:31:12;;;;;;;1.60;0.40;;;26.20;33.40;;;;;;6193274;28;20121;-79
2021/09/29 14:34:14;;;;;;;3.83;0.50;;;26.10;33.40;;;;;;6178457;28;20049;-80
2021/09/29 14:37:16;;;;;;;0.70;0.30;;;26.10;33.50;;;;;;6175434;28;20042;-81
2021/09/29 14:40:19;;;;;;;6.38;0.60;;;26.10;33.70;;;;;;6192374;28;20034;-80
2021/09/29 14:43:20;;;;;;;1.35;0.50;;;26.00;33.80;;;;;;6200616;28;20108;-80
2021/09/29 14:46:21;;;;;;;6.10;0.90;;;26.00;34.00;;;;;;6194189;28;20439;-81
2021/09/29 14:49:22;;;;;;;0.93;0.47;;;25.90;34.10;;;;;;6196618;28;20050;-80
2021/09/29 14:52:24;;;;;;;1.88;0.60;;;25.90;34.20;;;;;;6196319;28;20418;-81
2021/09/29 14:55:32;;;;;;;3.85;0.70;;;25.80;34.40;;;;;;6195397;28;20034;-81
2021/09/29 14:58:34;;;;;;;1.23;0.60;;;25.80;34.40;;;;;;6181677;28;20038;-81
2021/09/29 15:01:35;;;;;;;3.28;0.68;;;25.80;34.40;;;;;;6192174;28;20033;-81
2021/09/29 15:04:36;;;;;;;3.45;0.80;;;25.80;34.60;;;;;;6196649;28;20125;-81
2021/09/29 15:07:37;;;;;;;1.67;0.68;;;25.80;34.80;;;;;;6178765;28;20038;-81
2021/09/29 15:10:38;;;;;;;1.10;0.60;;;25.80;34.90;;;;;;6193420;28;20099;-80
2021/09/29 15:13:45;;;;;;;6.88;0.70;;;25.80;35.10;;;;;;6194406;28;20068;-81
2021/09/29 15:16:54;;;;;;;1.00;0.60;;;25.70;35.00;;;;;;6211743;28;20034;-80
2021/09/29 15:20:12;;;;;;;12.50;0.90;;;25.70;35.10;;;;;;6219386;28;20366;-80
2021/09/29 16:06:47;;;;;;;1.83;0.70;;;25.50;35.80;;;;;;6157523;28;20118;-81
2021/09/29 16:13:04;;;;;;;2.55;0.88;;;25.40;35.80;;;;;;6181185;28;20049;-80
2021/09/29 16:32:22;;;;;;;1.35;0.70;;;25.10;35.70;;;;;;6234980;28;20046;-81
2021/09/29 16:35:27;;;;;;;1.80;1.00;;;25.10;35.60;;;;;;6224558;28;20079;-81
2021/09/29 16:38:28;;;;;;;1.95;0.85;;;25.00;35.60;;;;;;6222735;28;20044;-80
2021/09/29 16:41:29;;;;;;;2.03;0.95;;;25.00;35.70;;;;;;6236937;28;20043;-80
2021/09/29 16:44:31;;;;;;;2.47;0.85;;;24.90;35.80;;;;;;6205326;28;20323;-79
2021/09/29 16:47:32;;;;;;;1.77;0.80;;;24.80;35.80;;;;;;6203879;28;20049;-80
2021/09/29 16:50:44;;;;;;;2.08;1.15;;;24.70;35.90;;;;;;6221984;28;20042;-82
2021/09/29 16:53:49;;;;;;;2.50;0.70;;;24.70;36.00;;;;;;6209739;28;20064;-80
2021/09/29 16:56:50;;;;;;;6.13;0.90;;;24.60;36.20;;;;;;6214847;28;20039;-81
2021/09/29 17:00:04;;;;;;;2.50;0.70;;;24.50;36.90;;;;;;6168718;28;20038;-81
2021/09/29 17:03:06;;;;;;;4.25;0.88;;;24.50;36.50;;;;;;6207842;28;20185;-82
2021/09/29 17:06:10;;;;;;;1.63;0.80;;;24.50;36.80;;;;;;6177564;28;20042;-83
2021/09/29 17:09:10;;;;;;;2.22;0.77;;;24.40;36.90;;;;;;6193820;28;20041;-82
2021/09/29 17:12:13;;;;;;;2.03;0.60;;;24.30;37.00;;;;;;6212647;28;20038;-82
2021/09/29 17:15:14;;;;;;;1.17;0.43;;;24.30;37.20;;;;;;6197427;28;20100;-82
2021/09/29 17:18:14;;;;;;;0.90;0.50;;;24.20;37.30;;;;;;6200294;28;20411;-80
2021/09/29 17:21:18;;;;;;;2.35;0.57;;;24.10;37.40;;;;;;6205737;28;20073;-81
2021/09/29 17:24:20;;;;;;;1.67;0.80;;;24.00;37.70;;;;;;6201828;28;20042;-81
2021/09/29 17:27:21;;;;;;;2.72;1.20;;;24.00;38.00;;;;;;6193737;28;20371;-81
2021/09/29 17:30:29;;;;;;;1.80;0.80;;;23.90;38.20;;;;;;6212534;28;20461;-81
2021/09/29 17:33:42;;;;;;;1.17;0.73;;;23.80;38.60;;;;;;6196621;28;20117;-81
2021/09/29 17:40:25;;;;;;;1.33;1.00;;;23.60;39.00;;;;;;6215684;28;20426;-80
2021/09/29 17:53:27;;;;;;;4.75;1.50;;;23.30;40.00;;;;;;6217618;28;20052;-81
2021/09/29 17:56:30;;;;;;;3.58;1.23;;;23.20;40.40;;;;;;6218662;28;20038;-80
2021/09/29 17:59:33;;;;;;;2.83;1.23;;;23.10;40.60;;;;;;6169618;28;20069;-81
2021/09/29 18:09:06;;;;;;;2.45;0.95;;;22.90;40.70;;;;;;6190480;28;20042;-79
2021/09/29 18:12:07;;;;;;;2.13;1.20;;;22.90;41.10;;;;;;6218859;28;20341;-79
2021/09/29 18:15:09;;;;;;;4.10;1.27;;;22.80;41.20;;;;;;6203718;28;20053;-83
2021/09/29 18:18:11;;;;;;;3.58;1.10;;;22.80;41.40;;;;;;6200100;28;20050;-82
2021/09/29 18:21:14;;;;;;;1.83;1.00;;;22.70;41.30;;;;;;6195868;28;20132;-86
2021/09/29 18:24:17;;;;;;;3.05;1.17;;;22.70;41.20;;;;;;6211452;28;20053;-81
2021/09/29 18:27:18;;;;;;;2.45;1.10;;;22.60;41.00;;;;;;6205118;28;20046;-81
2021/09/29 18:30:19;;;;;;;4.13;1.40;;;22.60;41.00;;;;;;6189123;28;20038;-81
2021/09/29 18:33:23;;;;;;;3.22;1.38;;;22.50;41.00;;;;;;6223516;28;20038;-80
2021/09/29 18:36:53;;;;;;;4.63;1.70;;;22.50;41.30;;;;;;6159344;28;20051;-81
2021/09/29 18:39:55;;;;;;;2.63;1.23;;;22.40;42.00;;;;;;6206870;28;20068;-81
2021/09/29 18:42:56;;;;;;;5.88;2.05;;;22.50;41.70;;;;;;6197158;28;20034;-81
2021/09/29 18:45:58;;;;;;;3.92;1.75;;;22.40;42.00;;;;;;6172742;28;20061;-81
2021/09/29 18:49:00;;;;;;;6.32;2.72;;;22.40;42.30;;;;;;6196342;28;20046;-81
2021/09/29 18:52:01;;;;;;;5.00;2.50;;;22.30;42.60;;;;;;6192288;28;20034;-81
2021/09/29 19:08:27;;;;;;;5.75;1.88;;;22.10;43.20;;;;;;6217065;28;20034;-82
2021/09/29 19:11:28;;;;;;;1.35;0.70;;;22.10;42.80;;;;;;6219840;28;20022;-80
2021/09/29 19:14:29;;;;;;;3.75;1.55;;;22.10;42.40;;;;;;6220301;28;20041;-81
2021/09/29 19:17:36;;;;;;;2.45;1.10;;;22.10;42.20;;;;;;6200706;28;20478;-81
2021/09/29 19:20:37;;;;;;;4.05;1.20;;;22.10;42.40;;;;;;6218571;28;20033;-82
2021/09/29 19:23:38;;;;;;;2.58;1.13;;;22.00;42.60;;;;;;6224928;28;20408;-83
2021/09/29 19:26:39;;;;;;;1.73;0.68;;;22.10;42.80;;;;;;6217863;28;20038;-80
2021/09/29 19:29:40;;;;;;;4.20;0.90;;;22.00;42.90;;;;;;6217199;28;20444;-79
2021/09/29 19:32:46;;;;;;;1.30;0.60;;;22.00;43.20;;;;;;6205391;28;20045;-84
2021/09/29 19:35:47;;;;;;;3.00;1.13;;;22.00;43.40;;;;;;6211951;28;20110;-82
2021/09/29 19:38:50;;;;;;;1.60;0.68;;;21.90;43.70;;;;;;6230832;28;20091;-79
2021/09/29 19:41:51;;;;;;;0.50;0.40;;;21.90;43.70;;;;;;6200364;28;20037;-79
2021/09/29 19:44:56;;;;;;;1.80;0.80;;;21.90;43.90;;;;;;6218681;28;20434;-83
2021/09/29 19:48:07;;;;;;;2.67;0.60;;;21.90;44.10;;;;;;6216018;28;20359;-81
2021/09/29 20:07:47;;;;;;;0.93;0.40;;;21.80;45.20;;;;;;6211202;28;20127;-81
2021/09/29 20:10:48;;;;;;;2.28;0.60;;;21.80;45.20;;;;;;6194580;28;20050;-81
2021/09/29 20:13:49;;;;;;;4.75;0.60;;;21.80;45.50;;;;;;6198197;28;20039;-81
2021/09/29 20:16:51;;;;;;;0.60;0.30;;;21.70;45.50;;;;;;6210198;28;20033;-80
2021/09/29 20:19:58;;;;;;;12.30;1.30;;;21.70;45.50;;;;;;6224667;28;20045;-81
2021/09/29 20:23:02;;;;;;;0.70;0.40;;;21.70;45.50;;;;;;6203623;28;20045;-81
2021/09/29 20:26:03;;;;;;;1.00;0.50;;;21.70;45.40;;;;;;6216013;28;20175;-82
2021/09/29 20:29:05;;;;;;;0.63;0.40;;;21.70;45.30;;;;;;6182942;28;20038;-81